Andrey Gusyev

Recruteur en chef - Rubin
3 Déc 2028
Dimanche
Processus

Personnalité

Adaptabilité (19) Ambition (2) Controverse (4) Loyauté (13) Pression (10) Professionnalisme (7) Sportivité (3) Tempérament (19)

Profil

Style d'entraînement Démocratique
Diplôme National A
Détermination 11
Gestion des joueurs 10
Motivation 12
Discipline 6
Satisfaction professionnelle
100%
Fatigue
0%
Rôle Recruteur en chef
Salaire 90.6K p/s
Contrat 14.03.2030

Performance

Comportement Bon
Efficacité de l'entraînement
55%
Développement des joueurs
30%
Prévention des blessures
30%
Mise en place tactique
50%

Événements récents

A recommandé une cible de transfert maintenant
A voté contre une cible de transfert maintenant
A participé à une réunion de recrutement maintenant
A recommandé une cible de transfert maintenant
A recommandé une cible de transfert maintenant
A voté contre une cible de transfert maintenant
A évalué un joueur maintenant
A observé un match maintenant

Suivi en cours

223
Joueur Club Statut Capacité Confiance Observé Dernière observation Dernier vote
Makar Vysochenko Spartak Moscow Rapport prêt 97 / 106 67% 9 02.12.2028 Observer
Alexandr Derzhinskiy Slavia Mozyr Actif 94 / 89 40% 2 02.12.2028 -
Daniel Banjaqui Benfica Actif 130 / 136 40% 9 29.11.2028 -
Cheveyo Tsawa Club Brugge Actif 135 / 140 40% 1 29.11.2028 -
Miguel Figueiredo Benfica Actif 124 / 126 40% 5 26.11.2028 -
Celías Ingenthron Platense Actif 111 / 128 40% 5 26.11.2028 -
Tiago Gordillo San Miguel Actif 87 / 88 40% 2 26.11.2028 -
Christos Mouzakitis Hull City Actif 141 / 142 40% 8 25.11.2028 -
Artem Nosachev Spartak Moscow Actif 79 / 90 67% 3 25.11.2028 Refuser
Vitaly Bondarev Ural Actif 112 / 106 40% 3 24.11.2028 -
Louis Page Leicester City Actif 131 / 143 40% 2 24.11.2028 -
Josh King Newcastle United Actif 152 / 163 40% 1 24.11.2028 -
Chris Rigg West Ham United Actif 144 / 143 40% 1 23.11.2028 -
Björn Hedlöf Helsingborg Actif 92 / 100 40% 1 23.11.2028 -
Islam Imamov SKA Khabarovsk Actif 114 / 114 30% 1 / 1m 22.11.2028 -
Ianis Marin Pandurii Actif 102 / 99 40% 1 22.11.2028 -
Salvador Blopá Wolverhampton Actif 132 / 122 40% 1 22.11.2028 -
Maxim Radchenko Rostov Actif 89 / 89 40% 6 20.11.2028 -
Dmitry Pestryakov Real Sociedad Actif 125 / 135 40% 3 20.11.2028 -
Artem Zmeev Dinamo Moscow Actif 85 / 102 40% 1 20.11.2028 -
Máximo Munarriz San Telmo Actif 95 / 106 40% 1 18.11.2028 -
Noah Markmann Esbjerg Actif 122 / 115 40% 2 16.11.2028 -
Veljko Milosavljević Bournemouth Actif 151 / 151 40% 1 16.11.2028 -
Óscar Hinojosa Metropolitanos Actif 84 / 88 40% 3 14.11.2028 -
Jan Bürger Northampton Town Actif 125 / 129 40% 6 14.11.2028 -
Felipe Pujol Vélez Actif 104 / 108 40% 1 14.11.2028 -
Trey Nyoni Rotherham United Actif 149 / 151 40% 7 12.11.2028 -
Andrija Bulatović Chamois Niortais Actif 138 / 129 40% 1 12.11.2028 -
Santiago Espíndola River Plate Actif 106 / 129 40% 1 10.11.2028 -
Bernardo Lima Porto Actif 120 / 117 40% 7 08.11.2028 -
Estanislao López Colón Actif 94 / 90 40% 2 08.11.2028 -
Tyler Fletcher Rotherham United Actif 114 / 125 40% 2 07.11.2028 -
Andrey Ivlev Nizhniy Novgorod Actif 109 / 123 40% 4 06.11.2028 -
José Neto Benfica Actif 129 / 131 40% 1 06.11.2028 -
Johan Solstad-Nøis Tromso Actif 105 / 104 40% 1 06.11.2028 -
Juan Ruíz Díaz Los Andes Actif 84 / 78 40% 2 02.11.2028 -
Ibrahim Mbaye Queens Park Rangers Actif 140 / 139 40% 3 02.11.2028 -
Ryan McAidoo Oldham Athletic Actif 131 / 126 40% 2 02.11.2028 -
Yaroslav Khramtsevich Uni-X Labs Actif 85 / 95 40% 3 30.10.2028 -
Quvonchbek Abrayev Lokomotiv Actif 82 / 104 40% 1 30.10.2028 -
Ayanda Tibe Gor Mahia Actif 81 / 114 40% 2 29.10.2028 -
Benjamín Rodríguez Albion Actif 86 / 97 40% 2 29.10.2028 -
Chimobi Igwilo Rangers International Actif 90 / 91 40% 1 29.10.2028 -
Luis Yanes Real Cartagena Actif 96 / 107 40% 2 27.10.2028 -
Luka Andrade Montevideo City Torque Actif 97 / 104 40% 2 27.10.2028 -
Mateo Faure BATE Actif 83 / 109 40% 4 25.10.2028 -
Lisandro Piñero Banfield Actif 123 / 122 40% 1 25.10.2028 -
Idris Ajiya Nasarawa United Actif 77 / 98 40% 2 24.10.2028 -
Harry Gray Harrogate Town Actif 130 / 144 40% 1 22.10.2028 -
Nikita Massalyga Spartak Moscow Rapport prêt 105 / 115 67% 1 22.10.2028 -
Timofey Simanenka Gomel Actif 102 / 91 40% 3 20.10.2028 -
Julián Bragado Morón Actif 86 / 88 40% 3 16.10.2028 -
Mateo Lizondo Colón Actif 102 / 101 40% 3 16.10.2028 -
Matías Arias Vélez Actif 109 / 119 40% 1 15.10.2028 -
Gideon Manaseh Ikorodu City Actif 100 / 82 40% 2 14.10.2028 -
Musa Malik Ikorodu City Actif 87 / 108 40% 2 11.10.2028 -
Emmanuel Ndubueze Shooting Stars Actif 93 / 109 40% 1 11.10.2028 -
Julian Hall Real Salt Lake Actif 113 / 132 40% 1 09.10.2028 -
Sean Steur Rotherham United Actif 132 / 132 40% 1 09.10.2028 -
Sayfiddin Sodikov Andijon Actif 95 / 116 40% 1 08.10.2028 -
Ismail Bekbolat Kairat Actif 103 / 106 40% 1 06.10.2028 -
Henrique Carmo Sochi Actif 142 / 143 40% 1 06.10.2028 -
Nupe Godstime Bayelsa United Actif 91 / 115 40% 1 05.10.2028 -
Mateo Alcoba Albion Actif 85 / 101 40% 1 04.09.2028 -
Alex Verón Vélez Actif 118 / 114 40% 1 04.09.2028 -
Thobani Gumede AS Police Actif 93 / 90 40% 1 28.08.2028 -
Alex Verón Vélez Perdu 114 / 131 40% 1 21.08.2028 -
Yury Zhuravlev Fakel Actif 116 / 102 69% 1 14.08.2028 Approuver
Lamine Bèye Portimonense Actif 114 / 131 40% 1 07.08.2028 -
Artur Cherny Shinnik Perdu 109 / 95 69% 1 24.07.2028 -
Amine Boukamir Charleroi Actif 110 / 119 40% 4 18.07.2028 -
Nicolò Moranduzzo Renate Actif 98 / 96 40% 4 18.07.2028 -
Musa Danjuma Umraniyespor Actif 89 / 97 40% 2 10.07.2028 -
Riquelme Thompson-Jones Accrington Stanley Actif 106 / 118 40% 3 13.06.2028 -
Martim Cunha Porto Actif 103 / 109 40% 3 10.06.2028 -
Josh Nichols Oldham Athletic Actif 125 / 130 40% 5 10.06.2028 -
Denis Grigorjev Arsenal Tula Actif 77 / 77 40% 2 07.06.2028 -
Abubakar Adams Aduana Stars Actif 93 / 77 40% 3 05.06.2028 -
Kelian Le Pironnec Mirandés Actif 95 / 103 40% 1 05.06.2028 -
Jorthy Mokio ADO Den Haag Actif 134 / 131 40% 2 06.05.2028 -
Olivier Leroux Mouscron Actif 101 / 119 40% 8 05.05.2028 -
Federico Matarán Giana Erminio Actif 99 / 123 40% 3 05.05.2028 -
Ayden Heaven Portsmouth Actif 147 / 154 40% 2 04.05.2028 -
Simone Suppa Virtus Verona Actif 89 / 94 40% 1 27.04.2028 -
Augusto Bando Ascoli Actif 106 / 117 40% 1 23.04.2028 -
Honest Ahanor Atalanta Actif 131 / 146 40% 4 22.04.2028 -
Kiani Inge Groningen Actif 113 / 111 40% 2 20.04.2028 -
Eko Solomon Leixões Actif 83 / 98 40% 1 20.04.2028 -
Olivier Mambwa Young Boys Actif 107 / 122 40% 3 17.04.2028 -
Andrea Cogoni Cosenza Actif 105 / 121 40% 1 17.04.2028 -
Giovanni Leoni Lincoln City Actif 136 / 152 40% 4 30.03.2028 -
Victor Hernandez Santa Fe Actif 127 / 119 40% 7 27.03.2028 -
Andrea Bertoncini Triestina Actif 100 / 103 40% 1 26.03.2028 -
Josh Acheampong Everton Actif 141 / 141 40% 3 22.03.2028 -
Bence Szakos Aris Actif 97 / 85 40% 1 20.03.2028 -
Nicolas Sport Recife Actif 104 / 122 40% 1 15.03.2028 -
Tobiáš Pališčák Zlin Actif 92 / 97 40% 1 10.03.2028 -
Tobías Ramírez River Plate Actif 120 / 124 40% 1 09.03.2028 -
Irad Mshindi Liepaja Actif 83 / 98 40% 1 14.02.2028 -
Martin Cedidla Club Brugge Actif 131 / 132 66% 1 25.01.2028 Approuver
Nicolás Fernández Mercau Club America Actif 134 / 134 67% 1 25.01.2028 Approuver
Matías Canedo Rampla Juniors Actif 84 / 84 40% 1 17.01.2028 -
Jonny Shore New York City Actif 92 / 119 40% 2 13.01.2028 -
Juan Camilo Córdoba Deportivo Pereira Actif 88 / 103 40% 4 12.01.2028 -
Colin Guske Orlando City Actif 97 / 87 40% 1 11.01.2028 -
Ignacio Fernández Boston River Actif 83 / 109 40% 2 09.01.2028 -
Matias Siltanen Malmo FF Actif 132 / 145 40% 1 07.01.2028 -
Rasmus Nehrman Gefle Actif 82 / 71 40% 2 04.01.2028 -
Azizbek Erimbetov Neftchi Actif 74 / 92 40% 1 04.01.2028 -
Diego Vargas Universidad de Concepcion Actif 91 / 101 40% 1 31.12.2027 -
Onyeuche Ujunwa Ikorodu City Actif 86 / 83 40% 5 29.12.2027 -
Hosea Michael Remo Stars Actif 101 / 102 40% 4 26.12.2027 -
Joel Ezra Enyimba Actif 93 / 101 40% 4 22.12.2027 -
Gonçalo Oliveira Benfica Actif 111 / 118 40% 2 20.12.2027 -
Evgeniy Novykh Vitebsk Actif 75 / 90 40% 2 17.12.2027 -
Kirill Volkov Volgar Actif 91 / 100 40% 1 16.12.2027 -
Frederik Damkjer Viborg Actif 92 / 92 40% 1 15.12.2027 -
Matvey Bardachev Zenit Actif 99 / 105 40% 1 12.12.2027 -
Abena Ottou Felix Christanval Minsk Actif 84 / 82 40% 1 09.12.2027 -
Jon Esenga IF Elfsborg Actif 85 / 88 40% 2 08.12.2027 -
Luciano Posadas Central Córdoba SdE Actif 97 / 104 40% 1 28.11.2027 -
Oscar Steinke Brånby Hammarby Actif 97 / 114 40% 1 25.11.2027 -
Lucas Camejo River Plate Actif 96 / 97 40% 1 24.11.2027 -
Hugo Rojas Instituto Actif 99 / 102 40% 1 14.11.2027 -
Timofey Marinkin Dinamo Moscow Actif 91 / 87 67% 1 13.11.2027 Observer
Omar Minatulaev Orenburg Actif 81 / 73 67% 2 11.11.2027 Refuser
Yiandro Raap Ilves Actif 97 / 95 40% 1 11.11.2027 -
Brayan Gil Baltika Actif 124 / 109 40% 5 30.06.2027 -
Pedro de la Vega Columbus Crew Actif 133 / 134 66% 1 14.06.2027 Approuver
Heinz Mörschel Espanyol Actif 125 / 113 40% 1 10.06.2027 -
Yegor Vedernikov Irkutsk Actif 71 / 84 40% 1 10.06.2027 -
George Hoddle Cambridge United Actif 83 / 94 40% 2 08.06.2027 -
Ozziel Herrera Barcelona Actif 127 / 141 40% 1 08.06.2027 -
Nikolay Komlichenko Lokomotiv Moscow Actif 132 / 115 40% 1 08.06.2027 -
Eduardo Lozano Botafogo Actif 152 / 152 40% 4 30.05.2027 -
Mathys Tel Tottenham Actif 135 / 147 40% 2 30.05.2027 -
Manfred Ugalde Spartak Moscow Actif 138 / 138 40% 6 28.05.2027 -
Ezra Mayers West Ham United Actif 113 / 124 40% 1 28.05.2027 -
Rhys Walters Port Vale Actif 98 / 113 40% 1 28.05.2027 -
Soufiane Benjdida FC Nantes Actif 125 / 127 40% 2 27.05.2027 -
Franculino Brighton Actif 132 / 150 40% 4 24.05.2027 -
Ilyas Ansah Hull City Actif 132 / 127 40% 2 23.05.2027 -
Luciano Gondou Chelsea Actif 130 / 120 40% 2 20.05.2027 -
Bence Dárdai VfL Wolfsburg Actif 136 / 145 40% 1 14.05.2027 -
Leandro Martins Benfica Actif 96 / 104 40% 1 11.05.2027 -
Konta Ismaily Actif 75 / 118 40% 1 09.05.2027 -
Esequiel Barco Spartak Moscow Actif 142 / 127 40% 1 08.05.2027 -
Younes Ebnoutalib Eintracht Frankfurt Actif 130 / 132 40% 1 05.05.2027 -
Maksim Samorodov Akhmat Grozny Actif 119 / 111 40% 1 04.05.2027 -
Egas Cacintura Akhmat Grozny Actif 120 / 127 40% 1 02.05.2027 -
Marquinhos Spartak Moscow Actif 130 / 139 40% 5 01.05.2027 -
Joe Johnson Luton Town Actif 96 / 115 40% 1 30.04.2027 -
Bade Aluko Leicester City Actif 110 / 126 40% 1 25.04.2027 -
Mirlind Daku Spartak Moscow Actif 123 / 130 40% 2 22.04.2027 -
Arthur Gomes Dinamo Moscow Actif 130 / 113 40% 2 08.04.2027 -
David Ozoh Derby County Actif 120 / 125 40% 1 06.04.2027 -
Mihailo Ivanović Aston Villa Actif 127 / 125 40% 2 05.04.2027 -
Ivan Sergeev Dinamo Moscow Actif 133 / 113 40% 2 27.03.2027 -
Norbert Barczak Korona Actif 79 / 96 40% 1 19.03.2027 -
Alerrandro CSKA Moscow Actif 125 / 127 40% 1 09.03.2027 -
Tamerlan Musaev CSKA Moscow Actif 109 / 119 40% 2 08.03.2027 -
Samuele di Benedetto Twente Actif 110 / 119 40% 1 07.03.2027 -
Robert Mejía Orenburg Actif 107 / 106 40% 1 08.02.2027 -
Ilja Vakhania Krasnodar Actif 131 / 106 40% 1 01.02.2027 -
Nail Umyarov Spartak Moscow Actif 135 / 128 40% 1 30.01.2027 -
Sampson Dweh Mallorca Actif 133 / 134 66% 1 25.01.2027 Approuver
Dmitry Tikhiy Volga Actif 103 / 98 58% 1 25.01.2027 -
Anton Mitryushkin Lokomotiv Moscow Actif 120 / 133 40% 3 23.01.2027 -
Kirill Glebov CSKA Moscow Actif 121 / 135 40% 2 20.01.2027 -
Aldo Pérez Guarani Actif 114 / 106 40% 2 15.01.2027 -
Alexandr Selikhov Ural Actif 118 / 109 40% 5 14.01.2027 -
Ilja Pomazun Spartak Moscow Actif 125 / 117 40% 1 13.01.2027 -
Alexandr Koryakin Krasnodar Actif 104 / 100 40% 2 12.01.2027 -
Luis Chávez Dinamo Moscow Actif 122 / 127 40% 2 12.01.2027 -
Maxim Borisko CSKA Moscow Actif 118 / 134 40% 2 08.01.2027 -
Stanislav Agkatsev Brentford Actif 143 / 127 40% 6 01.01.2027 -
Joaquín Bigo Tristán Suárez Actif 108 / 109 40% 2 01.01.2027 -
Lucas Bergström Union Berlin Actif 122 / 130 40% 4 28.12.2026 -
Olakunle Olusegun Rostov Actif 117 / 133 40% 1 24.12.2026 -
Rustam Yatimov Rostov Actif 129 / 132 40% 3 20.12.2026 -
Otávio Spartak Moscow Actif 138 / 143 40% 1 16.12.2026 -
Igor Leschuk Dinamo Moscow Actif 111 / 121 40% 1 14.12.2026 -
Bogdan Ovsyannikov Orenburg Actif 99 / 100 40% 6 12.12.2026 -
Pedro Rocha Juventude Actif 112 / 121 40% 1 08.12.2026 -
Luiz Felipe Lokomotiv Moscow Actif 100 / 121 40% 2 07.12.2026 -
Harvey Vale Queens Park Rangers Actif 121 / 119 40% 1 03.12.2026 -
Samuel Brolin Kalmar FF Actif 117 / 109 40% 2 30.11.2026 -
Lechi Sadulaev Akhmat Grozny Actif 128 / 107 40% 2 29.11.2026 -
Batxi Krasnodar Actif 132 / 115 40% 1 29.11.2026 -
Facundo Altamirano San Lorenzo Actif 126 / 124 40% 1 25.11.2026 -
Fernando Costanza Krylya Sovetov Actif 122 / 136 40% 1 24.11.2026 -
Francisco Meixedo Feirense Actif 118 / 101 40% 3 18.11.2026 -
Rubén Blanco Yokohama F. Marinos Actif 143 / 150 40% 2 13.11.2026 -
Sébastien Cibois Portimonense Actif 111 / 118 40% 1 13.11.2026 -
Lucas Vera Lokomotiv Moscow Actif 114 / 121 40% 1 09.11.2026 -
Matthias Seidl Rapid Wien Actif 127 / 130 40% 1 08.11.2026 -
Tyrhys Dolan Espanyol Actif 142 / 134 40% 1 03.11.2026 -
Rubens Dinamo Moscow Actif 125 / 144 40% 2 02.11.2026 -
Iker Pozo Rodina Actif 114 / 119 40% 1 02.11.2026 -
Nikita Medvedev Nizhniy Novgorod Actif 101 / 118 40% 3 31.10.2026 -
Denis Adamov Zenit Actif 127 / 130 40% 2 31.10.2026 -
Alex Bono DC United Actif 127 / 113 40% 1 30.10.2026 -
Ivan Lomaev Ufa Actif 98 / 96 40% 3 27.10.2026 -
Fedor Lapoukhov Osasuna Actif 113 / 129 40% 1 26.10.2026 -
Alexandr Chernikov Krasnodar Actif 123 / 115 40% 1 24.10.2026 -
Abduvohid Ne'matov Nasaf Actif 111 / 121 40% 2 21.10.2026 -
Filip Marschall Stevenage Actif 112 / 100 40% 1 07.10.2026 -
Husain Norchayev Navbahor Actif 106 / 112 40% 1 07.10.2026 -
Vladimir Nazarov Pakhtakor Actif 97 / 131 40% 1 05.10.2026 -
Nikita Krivtsov Krasnodar Actif 138 / 123 40% 3 01.10.2026 -
Lucas Souto Defensa y Justicia Actif 116 / 132 40% 1 27.09.2026 -
Dmitry Vasiljev Orenburg Actif 105 / 106 40% 1 27.09.2026 -
Diyor Xolmatov Navbahor Actif 120 / 106 40% 1 25.09.2026 -
Manu Morlanes Mallorca Actif 139 / 128 40% 1 24.09.2026 -
Jay Matete Milton Keynes Dons Actif 113 / 122 40% 1 23.09.2026 -
Mihajlo Banjac Krylya Sovetov Actif 110 / 122 40% 1 23.09.2026 -
Sergey Pinyaev Lokomotiv Moscow Actif 130 / 126 40% 1 20.09.2026 -
Lawrence Ennali Houston Dynamo Actif 111 / 125 40% 1 15.09.2026 -
Mikhail Ignatov Sochi Actif 107 / 127 40% 2 14.09.2026 -
Million Manhoef Stoke City Actif 115 / 126 40% 1 14.09.2026 -
Temirlan Anarbekov Kairat Actif 97 / 97 40% 1 24.08.2026 -
Marin Žgomba Vitebsk Actif 90 / 76 40% 1 10.08.2026 -
Gabriel Martinelli Arsenal Actif 163 / 164 40% 1 01.08.2026 -